UFA weather

Ufa International Airport
Ufa, Republic of Bashkortostan, Russia

Public forecast

Using degrees Celsius for public forecast. Weather courtesy of forecast.io.

METAR (pilot weather report)

Retrieved 2019/04/24 05:30 UTC (0 seconds ago):

UWUU 240530Z 31005MPS 280V350 9999 BKN040 10/M01 Q1018 R32L/0///60 NOSIG RMK QFE751/1001

TAF (pilot weather forecast)

Retrieved 2019/04/24 03:21 UTC (2 hours ago):

TAF UWUU 240156Z 2403/2503 31005G10MPS 9999 SCT030 TEMPO 2403/2412 27003MPS TEMPO 2412/2503 34006MPS 3100 -SHRA SCT011 BKN020CB